SXS8RW LTAI-LTBJ
Flight info
| Callsign | SXS8RW |
|---|---|
| Flight time | 0h 43m |
| Altitude | 30000 |
| Route | EVBOL UT489 KAVAK UT283 OKESA |
| Aircraft | B738/M-SDE2E3FGHIRWXY/LB1 |
Departure
| Time | 2026-05-07 23:25 |
|---|---|
| Airport | Antalya International Airport (LTAI) |
Arrival
| Time | 2026-05-08 00:08 |
|---|---|
| Airport | Adnan Menderes International Airport (LTBJ) |
| Time | Latitude | Longitude | Altitude | Speed | Heading |
|---|---|---|---|---|---|
| 2026-05-07 22:53 | 36.89524 | 30.80238 | 175 ft | 0 kts | 187° |
| 2026-05-07 23:13 | 36.89536 | 30.80239 | 175 ft | 4 kts | 182° |
| 2026-05-07 23:13 | 36.89561 | 30.80237 | 175 ft | 4 kts | 165° |
| 2026-05-07 23:14 | 36.89585 | 30.80225 | 175 ft | 4 kts | 144° |
| 2026-05-07 23:14 | 36.89601 | 30.80203 | 175 ft | 4 kts | 108° |
| 2026-05-07 23:14 | 36.89603 | 30.80194 | 175 ft | 1 kts | 96° |
| 2026-05-07 23:17 | 36.89602 | 30.80202 | 175 ft | 3 kts | 96° |
| 2026-05-07 23:17 | 36.89600 | 30.80236 | 175 ft | 5 kts | 97° |
| 2026-05-07 23:18 | 36.89594 | 30.80294 | 175 ft | 8 kts | 96° |
| 2026-05-07 23:18 | 36.89587 | 30.80375 | 175 ft | 11 kts | 97° |
| 2026-05-07 23:18 | 36.89577 | 30.80471 | 175 ft | 11 kts | 97° |
| 2026-05-07 23:18 | 36.89570 | 30.80566 | 175 ft | 11 kts | 97° |
| 2026-05-07 23:19 | 36.89558 | 30.80650 | 175 ft | 8 kts | 114° |
| 2026-05-07 23:19 | 36.89511 | 30.80680 | 175 ft | 9 kts | 177° |
| 2026-05-07 23:19 | 36.89441 | 30.80671 | 175 ft | 11 kts | 187° |
| 2026-05-07 23:19 | 36.89354 | 30.80658 | 175 ft | 14 kts | 186° |
| 2026-05-07 23:20 | 36.89261 | 30.80646 | 175 ft | 13 kts | 186° |
| 2026-05-07 23:20 | 36.89171 | 30.80633 | 175 ft | 13 kts | 186° |
| 2026-05-07 23:20 | 36.89083 | 30.80621 | 175 ft | 13 kts | 186° |
| 2026-05-07 23:20 | 36.88997 | 30.80609 | 175 ft | 12 kts | 186° |
| 2026-05-07 23:21 | 36.88914 | 30.80597 | 175 ft | 12 kts | 186° |
| 2026-05-07 23:21 | 36.88832 | 30.80586 | 175 ft | 12 kts | 186° |
| 2026-05-07 23:21 | 36.88753 | 30.80575 | 176 ft | 11 kts | 186° |
| 2026-05-07 23:21 | 36.88675 | 30.80564 | 176 ft | 12 kts | 186° |
| 2026-05-07 23:22 | 36.88579 | 30.80552 | 176 ft | 15 kts | 186° |
| 2026-05-07 23:22 | 36.88467 | 30.80537 | 176 ft | 17 kts | 186° |
| 2026-05-07 23:22 | 36.88342 | 30.80519 | 175 ft | 18 kts | 187° |
| 2026-05-07 23:22 | 36.88219 | 30.80501 | 175 ft | 17 kts | 185° |
| 2026-05-07 23:23 | 36.88121 | 30.80489 | 175 ft | 10 kts | 186° |
| 2026-05-07 23:23 | 36.88064 | 30.80529 | 175 ft | 10 kts | 115° |
| 2026-05-07 23:23 | 36.88068 | 30.80614 | 174 ft | 10 kts | 61° |
| 2026-05-07 23:23 | 36.88103 | 30.80688 | 174 ft | 10 kts | 58° |
| 2026-05-07 23:24 | 36.88157 | 30.80731 | 175 ft | 10 kts | 7° |
| 2026-05-07 23:24 | 36.88237 | 30.80743 | 175 ft | 24 kts | 6° |
| 2026-05-07 23:24 | 36.88662 | 30.80799 | 177 ft | 97 kts | 6° |
| 2026-05-07 23:24 | 36.89549 | 30.80925 | 177 ft | 158 kts | 6° |
| 2026-05-07 23:25 | 36.90716 | 30.81097 | 693 ft | 169 kts | 6° |
| 2026-05-07 23:25 | 36.91870 | 30.81355 | 1552 ft | 169 kts | 20° |
| 2026-05-07 23:25 | 36.92977 | 30.81946 | 2202 ft | 184 kts | 22° |
| 2026-05-07 23:25 | 36.94264 | 30.82606 | 2526 ft | 210 kts | 21° |
| 2026-05-07 23:26 | 36.95639 | 30.83295 | 3083 ft | 220 kts | 21° |
| 2026-05-07 23:26 | 36.97074 | 30.84014 | 3751 ft | 223 kts | 24° |
| 2026-05-07 23:26 | 36.98263 | 30.85250 | 4444 ft | 226 kts | 58° |
| 2026-05-07 23:26 | 36.98726 | 30.87173 | 4860 ft | 243 kts | 90° |
| 2026-05-07 23:27 | 36.98367 | 30.91739 | 5922 ft | 275 kts | 96° |
| 2026-05-07 23:27 | 36.98155 | 30.94126 | 6789 ft | 277 kts | 96° |
| 2026-05-07 23:27 | 36.97951 | 30.96522 | 7666 ft | 279 kts | 95° |
| 2026-05-07 23:28 | 36.97749 | 30.98931 | 8438 ft | 284 kts | 95° |
| 2026-05-07 23:28 | 36.97819 | 31.01392 | 9192 ft | 286 kts | 71° |
| 2026-05-07 23:28 | 36.98871 | 31.03467 | 9967 ft | 286 kts | 40° |
| 2026-05-07 23:28 | 37.00598 | 31.04729 | 10512 ft | 297 kts | 16° |
| 2026-05-07 23:29 | 37.02715 | 31.05052 | 10704 ft | 319 kts | 354° |
| 2026-05-07 23:29 | 37.04932 | 31.04380 | 10927 ft | 339 kts | 335° |
| 2026-05-07 23:29 | 37.06856 | 31.02653 | 11484 ft | 348 kts | 310° |
| 2026-05-07 23:29 | 37.07955 | 30.99973 | 12278 ft | 350 kts | 284° |
| 2026-05-07 23:30 | 37.08201 | 30.96936 | 13102 ft | 352 kts | 273° |
| 2026-05-07 23:30 | 37.08226 | 30.93844 | 13812 ft | 356 kts | 272° |
| 2026-05-07 23:30 | 37.08251 | 30.90725 | 14482 ft | 360 kts | 273° |
| 2026-05-07 23:30 | 37.08326 | 30.87625 | 15185 ft | 362 kts | 274° |
| 2026-05-07 23:31 | 37.08458 | 30.84468 | 15850 ft | 365 kts | 275° |
| 2026-05-07 23:31 | 37.08636 | 30.81275 | 16513 ft | 367 kts | 276° |
| 2026-05-07 23:31 | 37.08844 | 30.78081 | 17174 ft | 369 kts | 277° |
| 2026-05-07 23:31 | 37.09072 | 30.74866 | 17803 ft | 372 kts | 277° |
| 2026-05-07 23:32 | 37.09314 | 30.71613 | 18388 ft | 375 kts | 277° |
| 2026-05-07 23:32 | 37.09560 | 30.68357 | 18985 ft | 377 kts | 277° |
| 2026-05-07 23:32 | 37.09811 | 30.65070 | 19550 ft | 380 kts | 278° |
| 2026-05-07 23:32 | 37.10063 | 30.61757 | 20089 ft | 383 kts | 278° |
| 2026-05-07 23:33 | 37.10316 | 30.58429 | 20681 ft | 385 kts | 278° |
| 2026-05-07 23:33 | 37.10564 | 30.55120 | 21142 ft | 387 kts | 277° |
| 2026-05-07 23:33 | 37.10804 | 30.51747 | 21614 ft | 390 kts | 278° |
| 2026-05-07 23:33 | 37.11060 | 30.48345 | 22105 ft | 393 kts | 278° |
| 2026-05-07 23:34 | 37.11319 | 30.44944 | 22615 ft | 394 kts | 278° |
| 2026-05-07 23:34 | 37.11580 | 30.41513 | 23049 ft | 397 kts | 278° |
| 2026-05-07 23:34 | 37.11840 | 30.38055 | 23471 ft | 400 kts | 278° |
| 2026-05-07 23:34 | 37.12098 | 30.34584 | 23926 ft | 402 kts | 278° |
| 2026-05-07 23:35 | 37.12356 | 30.31080 | 24363 ft | 404 kts | 278° |
| 2026-05-07 23:35 | 37.12614 | 30.27570 | 24786 ft | 406 kts | 278° |
| 2026-05-07 23:35 | 37.12872 | 30.24026 | 25185 ft | 408 kts | 278° |
| 2026-05-07 23:35 | 37.13129 | 30.20482 | 25591 ft | 410 kts | 278° |
| 2026-05-07 23:36 | 37.13385 | 30.16949 | 25999 ft | 411 kts | 278° |
| 2026-05-07 23:36 | 37.13642 | 30.13377 | 26418 ft | 412 kts | 278° |
| 2026-05-07 23:36 | 37.13897 | 30.09812 | 26962 ft | 409 kts | 278° |
| 2026-05-07 23:36 | 37.14148 | 30.06272 | 27546 ft | 406 kts | 278° |
| 2026-05-07 23:37 | 37.14397 | 30.02761 | 28050 ft | 404 kts | 278° |
| 2026-05-07 23:37 | 37.14646 | 29.99242 | 28490 ft | 404 kts | 279° |
| 2026-05-07 23:37 | 37.14893 | 29.95741 | 29001 ft | 401 kts | 279° |
| 2026-05-07 23:37 | 37.15136 | 29.92272 | 29539 ft | 397 kts | 279° |
| 2026-05-07 23:38 | 37.15379 | 29.88812 | 29797 ft | 400 kts | 279° |
| 2026-05-07 23:38 | 37.15622 | 29.85336 | 30068 ft | 400 kts | 279° |
| 2026-05-07 23:38 | 37.16105 | 29.78369 | 30144 ft | 400 kts | 279° |
| 2026-05-07 23:39 | 37.16577 | 29.71489 | 30141 ft | 395 kts | 279° |
| 2026-05-07 23:39 | 37.17061 | 29.64612 | 30156 ft | 396 kts | 281° |
| 2026-05-07 23:40 | 37.18298 | 29.57944 | 30143 ft | 393 kts | 289° |
| 2026-05-07 23:40 | 37.19738 | 29.51304 | 30135 ft | 395 kts | 289° |
| 2026-05-07 23:41 | 37.21149 | 29.44643 | 30145 ft | 395 kts | 288° |
| 2026-05-07 23:41 | 37.22536 | 29.38015 | 30133 ft | 396 kts | 288° |
| 2026-05-07 23:42 | 37.23904 | 29.31336 | 30137 ft | 394 kts | 288° |
| 2026-05-07 23:42 | 37.25267 | 29.24675 | 30134 ft | 392 kts | 288° |
| 2026-05-07 23:43 | 37.26620 | 29.18070 | 30132 ft | 390 kts | 288° |
| 2026-05-07 23:43 | 37.27968 | 29.11489 | 30146 ft | 389 kts | 288° |
| 2026-05-07 23:44 | 37.29317 | 29.04883 | 30138 ft | 391 kts | 288° |
| 2026-05-07 23:44 | 37.30663 | 28.98264 | 30132 ft | 391 kts | 288° |
| 2026-05-07 23:45 | 37.32005 | 28.91640 | 30128 ft | 391 kts | 288° |
| 2026-05-07 23:45 | 37.33337 | 28.85049 | 30134 ft | 391 kts | 288° |
| 2026-05-07 23:46 | 37.34677 | 28.78400 | 30125 ft | 392 kts | 288° |
| 2026-05-07 23:46 | 37.36016 | 28.71742 | 30128 ft | 392 kts | 289° |
| 2026-05-07 23:47 | 37.37391 | 28.65114 | 30131 ft | 391 kts | 289° |
| 2026-05-07 23:47 | 37.38743 | 28.58615 | 29487 ft | 383 kts | 289° |
| 2026-05-07 23:48 | 37.39419 | 28.55363 | 28850 ft | 384 kts | 289° |
| 2026-05-07 23:48 | 37.40093 | 28.52114 | 28265 ft | 384 kts | 289° |
| 2026-05-07 23:48 | 37.40765 | 28.48861 | 27735 ft | 382 kts | 289° |
| 2026-05-07 23:48 | 37.41430 | 28.45633 | 27229 ft | 381 kts | 289° |
| 2026-05-07 23:49 | 37.42092 | 28.42409 | 26709 ft | 379 kts | 289° |
| 2026-05-07 23:49 | 37.42747 | 28.39214 | 26204 ft | 376 kts | 288° |
| 2026-05-07 23:49 | 37.43400 | 28.36031 | 25700 ft | 374 kts | 288° |
| 2026-05-07 23:49 | 37.44048 | 28.32867 | 25186 ft | 372 kts | 288° |
| 2026-05-07 23:50 | 37.44685 | 28.29752 | 24662 ft | 371 kts | 288° |
| 2026-05-07 23:50 | 37.45328 | 28.26609 | 24152 ft | 370 kts | 288° |
| 2026-05-07 23:50 | 37.45961 | 28.23501 | 23589 ft | 363 kts | 288° |
| 2026-05-07 23:50 | 37.46586 | 28.20428 | 22836 ft | 361 kts | 288° |
| 2026-05-07 23:51 | 37.47207 | 28.17372 | 22057 ft | 360 kts | 288° |
| 2026-05-07 23:51 | 37.47823 | 28.14335 | 21329 ft | 357 kts | 288° |
| 2026-05-07 23:51 | 37.48433 | 28.11326 | 20848 ft | 354 kts | 288° |
| 2026-05-07 23:51 | 37.49040 | 28.08328 | 20369 ft | 352 kts | 288° |
| 2026-05-07 23:52 | 37.49644 | 28.05341 | 19933 ft | 351 kts | 287° |
| 2026-05-07 23:52 | 37.50244 | 28.02369 | 19494 ft | 349 kts | 287° |
| 2026-05-07 23:52 | 37.50840 | 27.99414 | 18991 ft | 349 kts | 287° |
| 2026-05-07 23:52 | 37.51394 | 27.96662 | 18570 ft | 348 kts | 287° |
| 2026-05-07 23:53 | 37.51986 | 27.93715 | 18146 ft | 344 kts | 287° |
| 2026-05-07 23:53 | 37.52563 | 27.90831 | 17610 ft | 337 kts | 287° |
| 2026-05-07 23:53 | 37.53129 | 27.88005 | 16898 ft | 336 kts | 287° |
| 2026-05-07 23:53 | 37.53702 | 27.85150 | 16158 ft | 336 kts | 287° |
| 2026-05-07 23:54 | 37.54271 | 27.82304 | 15460 ft | 334 kts | 287° |
| 2026-05-07 23:54 | 37.54832 | 27.79491 | 15054 ft | 329 kts | 287° |
| 2026-05-07 23:54 | 37.55390 | 27.76697 | 14647 ft | 328 kts | 287° |
| 2026-05-07 23:54 | 37.55944 | 27.73916 | 14239 ft | 326 kts | 287° |
| 2026-05-07 23:55 | 37.56500 | 27.71148 | 13839 ft | 324 kts | 289° |
| 2026-05-07 23:55 | 37.57467 | 27.68623 | 13458 ft | 318 kts | 306° |
| 2026-05-07 23:55 | 37.58328 | 27.67138 | 13231 ft | 315 kts | 309° |
| 2026-05-07 23:55 | 37.60133 | 27.64242 | 12798 ft | 311 kts | 310° |
| 2026-05-07 23:56 | 37.61022 | 27.62838 | 12622 ft | 308 kts | 310° |
| 2026-05-07 23:56 | 37.62346 | 27.60751 | 12450 ft | 300 kts | 310° |
| 2026-05-07 23:56 | 37.64076 | 27.58031 | 12167 ft | 304 kts | 310° |
| 2026-05-07 23:56 | 37.65428 | 27.55917 | 11922 ft | 314 kts | 310° |
| 2026-05-07 23:57 | 37.66812 | 27.53757 | 11682 ft | 319 kts | 310° |
| 2026-05-07 23:57 | 37.67759 | 27.52282 | 11513 ft | 319 kts | 310° |
| 2026-05-07 23:57 | 37.69151 | 27.50115 | 11253 ft | 315 kts | 310° |
| 2026-05-07 23:57 | 37.70499 | 27.48018 | 11045 ft | 307 kts | 310° |
| 2026-05-07 23:58 | 37.71844 | 27.45926 | 10833 ft | 300 kts | 310° |
| 2026-05-07 23:58 | 37.73149 | 27.43899 | 10622 ft | 294 kts | 310° |
| 2026-05-07 23:58 | 37.74425 | 27.41917 | 10436 ft | 287 kts | 310° |
| 2026-05-07 23:58 | 37.75645 | 27.40021 | 10241 ft | 277 kts | 310° |
| 2026-05-07 23:59 | 37.76852 | 27.38147 | 9743 ft | 276 kts | 310° |
| 2026-05-07 23:59 | 37.78070 | 27.36260 | 9162 ft | 277 kts | 310° |
| 2026-05-07 23:59 | 37.79290 | 27.34378 | 8650 ft | 277 kts | 310° |
| 2026-05-07 23:59 | 37.80506 | 27.32505 | 8189 ft | 274 kts | 310° |
| 2026-05-08 00:00 | 37.81863 | 27.30838 | 7653 ft | 273 kts | 332° |
| 2026-05-08 00:00 | 37.83660 | 27.30087 | 7171 ft | 271 kts | 348° |
| 2026-05-08 00:00 | 37.85498 | 27.29646 | 6777 ft | 266 kts | 349° |
| 2026-05-08 00:00 | 37.87302 | 27.29199 | 6439 ft | 260 kts | 347° |
| 2026-05-08 00:01 | 37.88949 | 27.28736 | 6181 ft | 259 kts | 346° |
| 2026-05-08 00:01 | 37.90714 | 27.28187 | 5879 ft | 259 kts | 345° |
| 2026-05-08 00:01 | 37.92434 | 27.27613 | 5600 ft | 258 kts | 345° |
| 2026-05-08 00:01 | 37.94185 | 27.27005 | 5331 ft | 256 kts | 344° |
| 2026-05-08 00:02 | 37.95852 | 27.26409 | 5187 ft | 250 kts | 343° |
| 2026-05-08 00:02 | 37.97516 | 27.25805 | 4937 ft | 248 kts | 343° |
| 2026-05-08 00:02 | 37.99174 | 27.25196 | 4659 ft | 248 kts | 343° |
| 2026-05-08 00:02 | 38.00797 | 27.24597 | 4419 ft | 243 kts | 343° |
| 2026-05-08 00:03 | 38.02404 | 27.24000 | 4109 ft | 238 kts | 343° |
| 2026-05-08 00:03 | 38.03984 | 27.23412 | 3804 ft | 235 kts | 343° |
| 2026-05-08 00:03 | 38.05544 | 27.22833 | 3506 ft | 231 kts | 343° |
| 2026-05-08 00:03 | 38.07070 | 27.22319 | 3268 ft | 224 kts | 347° |
| 2026-05-08 00:04 | 38.08569 | 27.21892 | 3031 ft | 218 kts | 347° |
| 2026-05-08 00:04 | 38.10034 | 27.21468 | 2789 ft | 212 kts | 347° |
| 2026-05-08 00:04 | 38.11456 | 27.21048 | 2557 ft | 207 kts | 347° |
| 2026-05-08 00:04 | 38.12839 | 27.20648 | 2346 ft | 201 kts | 347° |
| 2026-05-08 00:05 | 38.14172 | 27.20252 | 2162 ft | 193 kts | 347° |
| 2026-05-08 00:05 | 38.15454 | 27.19864 | 1993 ft | 184 kts | 346° |
| 2026-05-08 00:05 | 38.16668 | 27.19498 | 1940 ft | 178 kts | 346° |
| 2026-05-08 00:05 | 38.17873 | 27.19132 | 1946 ft | 179 kts | 347° |
| 2026-05-08 00:06 | 38.19082 | 27.18767 | 1945 ft | 178 kts | 346° |
| 2026-05-08 00:06 | 38.20255 | 27.18412 | 1889 ft | 172 kts | 346° |
| 2026-05-08 00:06 | 38.21408 | 27.18063 | 1687 ft | 168 kts | 346° |
| 2026-05-08 00:06 | 38.22513 | 27.17729 | 1469 ft | 159 kts | 346° |
| 2026-05-08 00:07 | 38.23569 | 27.17410 | 1268 ft | 154 kts | 346° |
| 2026-05-08 00:07 | 38.24613 | 27.17094 | 1071 ft | 155 kts | 346° |
| 2026-05-08 00:07 | 38.25662 | 27.16774 | 882 ft | 154 kts | 346° |
| 2026-05-08 00:07 | 38.26697 | 27.16460 | 665 ft | 153 kts | 346° |
| 2026-05-08 00:08 | 38.27737 | 27.16146 | 472 ft | 153 kts | 347° |
| 2026-05-08 00:08 | 38.28718 | 27.15854 | 410 ft | 130 kts | 347° |
| 2026-05-08 00:08 | 38.29455 | 27.15629 | 411 ft | 85 kts | 347° |
| 2026-05-08 00:08 | 38.29744 | 27.15535 | 415 ft | 23 kts | 331° |
| 2026-05-08 00:09 | 38.29850 | 27.15422 | 418 ft | 11 kts | 317° |
| 2026-05-08 00:09 | 38.29904 | 27.15358 | 417 ft | 10 kts | 317° |
| 2026-05-08 00:09 | 38.29955 | 27.15295 | 407 ft | 10 kts | 310° |
| 2026-05-08 00:09 | 38.29983 | 27.15216 | 413 ft | 10 kts | 276° |
| 2026-05-08 00:10 | 38.29973 | 27.15131 | 411 ft | 10 kts | 257° |
| 2026-05-08 00:10 | 38.29959 | 27.15049 | 412 ft | 9 kts | 257° |
| 2026-05-08 00:10 | 38.29932 | 27.14977 | 412 ft | 9 kts | 222° |
| 2026-05-08 00:10 | 38.29872 | 27.14969 | 418 ft | 9 kts | 168° |
| 2026-05-08 00:11 | 38.29813 | 27.14987 | 409 ft | 9 kts | 167° |
| 2026-05-08 00:11 | 38.29757 | 27.15004 | 409 ft | 8 kts | 166° |
| 2026-05-08 00:11 | 38.29700 | 27.15021 | 413 ft | 8 kts | 166° |
| 2026-05-08 00:11 | 38.29647 | 27.15037 | 418 ft | 8 kts | 167° |
| 2026-05-08 00:12 | 38.29601 | 27.15051 | 418 ft | 8 kts | 166° |
| 2026-05-08 00:12 | 38.29592 | 27.15053 | 418 ft | 8 kts | 166° |
| 2026-05-08 00:12 | 38.29541 | 27.15068 | 418 ft | 7 kts | 167° |
| 2026-05-08 00:13 | 38.29493 | 27.15083 | 418 ft | 7 kts | 167° |
| 2026-05-08 00:13 | 38.29474 | 27.15101 | 418 ft | 3 kts | 116° |
| 2026-05-08 00:13 | 38.29472 | 27.15133 | 418 ft | 5 kts | 85° |
| 2026-05-08 00:13 | 38.29479 | 27.15174 | 418 ft | 5 kts | 76° |
| 2026-05-08 00:14 | 38.29483 | 27.15195 | 418 ft | 1 kts | 76° |
| 2026-05-08 00:14 | 38.29485 | 27.15205 | 418 ft | 1 kts | 76° |
| 2026-05-08 00:14 | 38.29486 | 27.15210 | 418 ft | 0 kts | 76° |